Harrison Township, Michigan
Current Conditions -  °F | °C
As of 6:58 AM on Monday 26 Jan 2015 (Local Time) from KMTC Reporting Station
Clear Clear  
Wind Chill: -5°   Ceiling: Unl
Heat Index:   Visibility: 10mi
Dew Point:   Wind: 9mph
Humidity: 81%   Direction: 360°N
Pressure: 29.91"   Gusts: NA
Location:  42.58°N, 82.83°W
Report Text: KMTC 261158Z AUTO 36008KT 10SM CLR M13/M16 A2991 RMK AO2 SLP143 T11331159 11095 21133 56006 $
Loading
Personal Weather Stations






























Interactive Weather Map New forecast layout! Learn more

10-Day Weather Forecast

Advertisements
Track Severe Weather on mobile